createdAt,value
2018-12-31T00:00:29.286Z,12.37
2018-12-31T00:02:58.711Z,12.37
2018-12-31T00:05:27.780Z,10.90
2018-12-31T00:07:58.355Z,12.13
2018-12-31T00:10:27.474Z,11.70
2018-12-31T00:12:56.498Z,11.80
2018-12-31T00:15:25.574Z,12.03
2018-12-31T00:17:56.756Z,11.53
2018-12-31T00:20:28.154Z,10.63
2018-12-31T00:22:57.158Z,11.77
2018-12-31T00:25:26.196Z,10.23
2018-12-31T00:27:56.553Z,9.37
2018-12-31T00:30:25.658Z,10.07
2018-12-31T00:32:54.712Z,9.30
2018-12-31T00:35:23.783Z,8.87
2018-12-31T00:37:52.887Z,8.87
2018-12-31T00:40:22.126Z,7.63
2018-12-31T00:42:58.873Z,6.67
2018-12-31T00:45:22.029Z,7.57
2018-12-31T00:47:51.077Z,8.93
2018-12-31T00:50:21.354Z,7.23
2018-12-31T00:52:52.066Z,6.33
2018-12-31T00:55:21.115Z,6.43
2018-12-31T00:57:52.429Z,6.83
2018-12-31T01:00:21.523Z,7.87
2018-12-31T01:02:50.627Z,7.70
2018-12-31T01:05:20.028Z,8.07
2018-12-31T01:07:49.057Z,8.03
2018-12-31T01:10:18.186Z,8.37
2018-12-31T01:12:47.221Z,7.80
2018-12-31T01:15:16.322Z,8.20
2018-12-31T01:17:45.376Z,7.20
2018-12-31T01:20:15.912Z,8.33
2018-12-31T01:22:44.985Z,9.63
2018-12-31T01:25:14.042Z,9.80
2018-12-31T01:27:43.213Z,10.23
2018-12-31T01:30:12.209Z,9.73
2018-12-31T01:32:41.379Z,9.87
2018-12-31T01:35:10.411Z,10.37
2018-12-31T01:37:39.480Z,10.60
2018-12-31T01:40:08.520Z,10.30
2018-12-31T01:42:37.666Z,10.70
2018-12-31T01:45:06.765Z,10.90
2018-12-31T01:47:35.880Z,10.30
2018-12-31T01:50:05.001Z,10.57
2018-12-31T01:52:34.053Z,11.70
2018-12-31T01:55:03.182Z,10.97
2018-12-31T01:57:32.217Z,11.67
2018-12-31T02:00:01.255Z,11.47
2018-12-31T02:02:30.363Z,11.07
2018-12-31T02:04:59.412Z,11.53
2018-12-31T02:07:28.492Z,10.80
2018-12-31T02:09:57.594Z,11.80
2018-12-31T02:12:26.665Z,11.93
2018-12-31T02:14:57.401Z,11.63
2018-12-31T02:17:26.421Z,11.90
2018-12-31T02:19:56.522Z,11.60
2018-12-31T02:22:25.648Z,11.00
2018-12-31T02:24:56.815Z,11.00
2018-12-31T02:27:25.852Z,10.97
2018-12-31T02:29:54.892Z,11.80
2018-12-31T02:32:23.946Z,12.30
2018-12-31T02:34:52.997Z,11.03
2018-12-31T02:37:22.153Z,11.80
2018-12-31T02:39:51.262Z,12.33
2018-12-31T02:42:20.304Z,11.87
2018-12-31T02:44:49.343Z,11.60
2018-12-31T02:47:18.458Z,11.70
2018-12-31T02:49:47.536Z,11.07
2018-12-31T02:52:16.583Z,11.77
2018-12-31T02:54:45.652Z,11.07
2018-12-31T02:57:14.679Z,10.87
2018-12-31T02:59:44.118Z,11.37
2018-12-31T03:02:13.128Z,11.60
2018-12-31T03:04:42.182Z,10.30
2018-12-31T03:07:11.236Z,9.43
2018-12-31T03:09:40.445Z,9.90
2018-12-31T03:12:11.824Z,9.97
2018-12-31T03:14:42.360Z,9.57
2018-12-31T03:17:11.411Z,9.57
2018-12-31T03:19:40.495Z,8.30
2018-12-31T03:22:09.489Z,7.97
2018-12-31T03:24:38.582Z,7.53
2018-12-31T03:27:09.658Z,8.20
2018-12-31T03:29:39.791Z,7.93
2018-12-31T03:32:08.887Z,8.20
2018-12-31T03:34:38.067Z,7.93
2018-12-31T03:37:07.086Z,8.37
2018-12-31T03:39:38.914Z,7.70
2018-12-31T03:42:07.938Z,8.00
2018-12-31T03:44:37.160Z,7.30
2018-12-31T03:47:06.206Z,7.50
2018-12-31T03:49:35.508Z,7.43
2018-12-31T03:52:04.559Z,7.83
2018-12-31T03:54:33.656Z,7.70
2018-12-31T03:57:02.714Z,7.00
2018-12-31T03:59:34.139Z,7.70
2018-12-31T04:02:03.330Z,7.87
2018-12-31T04:04:32.414Z,7.63
2018-12-31T04:07:02.251Z,7.83
2018-12-31T04:09:31.368Z,8.10
2018-12-31T04:12:00.409Z,7.77
2018-12-31T04:14:29.500Z,7.63
2018-12-31T04:16:58.541Z,7.70
2018-12-31T04:19:27.669Z,8.53
2018-12-31T04:21:56.697Z,8.87
2018-12-31T04:24:25.775Z,10.67
2018-12-31T04:26:54.836Z,9.53
2018-12-31T04:29:23.865Z,10.60
2018-12-31T04:31:56.556Z,9.50
2018-12-31T04:34:25.649Z,9.77
2018-12-31T04:36:56.781Z,10.03
2018-12-31T04:39:26.530Z,10.00
2018-12-31T04:41:55.678Z,9.70
2018-12-31T04:44:24.754Z,10.50
2018-12-31T04:46:53.833Z,10.53
2018-12-31T04:49:22.954Z,10.37
2018-12-31T04:51:52.023Z,10.60
2018-12-31T04:54:21.054Z,11.13
2018-12-31T04:56:50.207Z,10.83
2018-12-31T04:59:21.276Z,10.40
2018-12-31T05:01:50.427Z,10.60
2018-12-31T05:04:19.541Z,10.73
2018-12-31T05:06:48.700Z,10.27
2018-12-31T05:09:17.776Z,11.37
2018-12-31T05:11:46.859Z,11.23
2018-12-31T05:14:15.905Z,11.47
2018-12-31T05:16:44.980Z,11.30
2018-12-31T05:19:14.095Z,11.13
2018-12-31T05:21:43.172Z,12.63
2018-12-31T05:24:12.174Z,12.70
2018-12-31T05:26:41.233Z,11.20
2018-12-31T05:29:12.086Z,11.90
2018-12-31T05:31:41.169Z,11.00
2018-12-31T05:34:10.292Z,11.83
2018-12-31T05:36:39.357Z,10.83
2018-12-31T05:39:08.846Z,11.73
2018-12-31T05:41:37.889Z,11.87
2018-12-31T05:44:06.944Z,11.00
2018-12-31T05:46:36.054Z,11.23
2018-12-31T05:49:05.269Z,11.73
2018-12-31T05:51:34.347Z,11.23
2018-12-31T05:54:04.454Z,11.07
2018-12-31T05:56:33.503Z,11.37
2018-12-31T05:59:02.538Z,11.87
2018-12-31T06:01:32.718Z,12.83
2018-12-31T06:04:01.829Z,13.03
2018-12-31T06:06:30.999Z,12.20
2018-12-31T06:09:02.521Z,13.53
2018-12-31T06:11:31.591Z,12.33
2018-12-31T06:14:00.619Z,12.33
2018-12-31T06:16:29.692Z,11.17
2018-12-31T06:18:58.813Z,12.20
2018-12-31T06:21:27.807Z,12.67
2018-12-31T06:23:56.929Z,12.47
2018-12-31T06:26:25.967Z,12.87
2018-12-31T06:28:55.184Z,11.70
2018-12-31T06:31:24.213Z,12.13
2018-12-31T06:33:53.271Z,11.80
2018-12-31T06:36:22.368Z,12.03
2018-12-31T06:38:53.776Z,12.23
2018-12-31T06:41:22.879Z,13.00
2018-12-31T06:43:51.952Z,11.77
2018-12-31T06:46:21.036Z,11.83
2018-12-31T06:48:50.203Z,12.37
2018-12-31T06:51:21.548Z,12.30
2018-12-31T06:53:50.638Z,13.93
2018-12-31T06:56:19.843Z,14.40
2018-12-31T06:58:48.859Z,13.57
2018-12-31T07:01:17.993Z,11.77
2018-12-31T07:03:47.037Z,13.10
2018-12-31T07:06:16.091Z,11.53
2018-12-31T07:08:45.200Z,10.60
2018-12-31T07:11:14.229Z,11.43
2018-12-31T07:13:43.287Z,12.23
2018-12-31T07:16:12.345Z,11.07
2018-12-31T07:18:41.516Z,11.53
2018-12-31T07:21:10.602Z,10.60
2018-12-31T07:23:39.619Z,11.30
2018-12-31T07:26:08.755Z,11.10
2018-12-31T07:28:37.865Z,11.13
2018-12-31T07:31:07.021Z,11.50
2018-12-31T07:33:36.134Z,12.10
2018-12-31T07:36:07.565Z,12.00
2018-12-31T07:38:39.958Z,11.23
2018-12-31T07:41:09.033Z,11.97
2018-12-31T07:43:38.071Z,11.77
2018-12-31T07:46:07.075Z,10.63
2018-12-31T07:48:36.905Z,11.30
2018-12-31T07:51:06.009Z,12.30
2018-12-31T07:53:37.099Z,12.20
2018-12-31T07:56:06.179Z,11.03
2018-12-31T07:58:35.220Z,12.30
2018-12-31T08:01:04.294Z,12.20
2018-12-31T08:03:33.352Z,11.43
2018-12-31T08:06:02.450Z,11.77
2018-12-31T08:08:31.479Z,12.07
2018-12-31T08:11:02.947Z,11.33
2018-12-31T08:13:31.999Z,11.83
2018-12-31T08:16:01.140Z,11.47
2018-12-31T08:18:30.106Z,12.33
2018-12-31T08:20:59.216Z,11.23
2018-12-31T08:23:28.568Z,11.43
2018-12-31T08:25:57.600Z,11.90
2018-12-31T08:28:27.825Z,12.87
2018-12-31T08:30:56.895Z,12.33
2018-12-31T08:33:25.959Z,10.77
2018-12-31T08:35:54.980Z,12.20
2018-12-31T08:38:24.110Z,11.30
2018-12-31T08:40:53.182Z,11.97
2018-12-31T08:43:22.247Z,12.03
2018-12-31T08:45:53.930Z,11.77
2018-12-31T08:48:23.043Z,11.83
2018-12-31T08:50:52.095Z,11.47
2018-12-31T08:53:24.289Z,12.00
2018-12-31T08:55:53.324Z,12.03
2018-12-31T08:58:22.463Z,11.83
2018-12-31T09:00:51.469Z,12.50
2018-12-31T09:03:20.628Z,12.57
2018-12-31T09:05:52.033Z,12.70
2018-12-31T09:08:21.280Z,13.03
2018-12-31T09:10:50.375Z,15.80
2018-12-31T09:13:20.539Z,16.27
2018-12-31T09:15:49.611Z,31.80
2018-12-31T09:18:18.689Z,26.77
2018-12-31T09:20:47.761Z,14.13
2018-12-31T09:23:16.830Z,13.60
2018-12-31T09:25:48.152Z,16.57
2018-12-31T09:28:17.291Z,13.80
2018-12-31T09:30:46.320Z,12.83
2018-12-31T09:33:15.377Z,13.37
2018-12-31T09:35:44.447Z,11.13
2018-12-31T09:38:13.507Z,9.60
2018-12-31T09:40:43.746Z,10.47
2018-12-31T09:43:12.826Z,9.77
2018-12-31T09:45:41.970Z,9.00
2018-12-31T09:48:11.199Z,8.43
2018-12-31T09:50:40.296Z,9.37
2018-12-31T09:53:09.371Z,10.60
2018-12-31T09:55:38.469Z,10.87
2018-12-31T09:58:07.698Z,9.60
2018-12-31T10:00:37.830Z,10.50
2018-12-31T10:03:06.892Z,9.20
2018-12-31T10:05:36.012Z,10.10
2018-12-31T10:08:05.146Z,9.87
2018-12-31T10:10:34.238Z,9.87
2018-12-31T10:13:04.080Z,9.97
2018-12-31T10:15:33.126Z,10.17
2018-12-31T10:18:02.149Z,10.23
2018-12-31T10:20:31.302Z,10.63
2018-12-31T10:23:01.365Z,10.60
2018-12-31T10:25:30.511Z,10.10
2018-12-31T10:27:59.727Z,11.37
2018-12-31T10:30:28.809Z,10.50
2018-12-31T10:32:57.817Z,10.77
2018-12-31T10:35:26.920Z,9.47
2018-12-31T10:37:57.572Z,16.53
2018-12-31T10:40:28.000Z,10.27
2018-12-31T10:42:57.103Z,9.80
2018-12-31T10:45:26.220Z,11.57
2018-12-31T10:47:55.257Z,11.17
2018-12-31T10:50:24.323Z,10.97
2018-12-31T10:52:54.052Z,11.13
2018-12-31T10:55:23.118Z,10.73
2018-12-31T10:57:52.193Z,10.40
2018-12-31T11:00:22.234Z,11.30
2018-12-31T11:02:51.502Z,11.10
2018-12-31T11:05:20.737Z,11.13
2018-12-31T11:07:49.760Z,11.50
2018-12-31T11:10:19.947Z,11.80
2018-12-31T11:12:51.628Z,11.63
2018-12-31T11:15:20.802Z,12.67
2018-12-31T11:17:49.816Z,13.73
2018-12-31T11:20:18.930Z,13.17
2018-12-31T11:22:47.939Z,12.73
2018-12-31T11:25:17.027Z,14.63
2018-12-31T11:27:46.351Z,12.10
2018-12-31T11:30:15.420Z,11.63
2018-12-31T11:32:44.428Z,12.47
2018-12-31T11:35:13.602Z,10.20
2018-12-31T11:37:42.684Z,10.37
2018-12-31T11:40:14.113Z,9.10
2018-12-31T11:42:43.130Z,8.43
2018-12-31T11:45:13.185Z,10.07
2018-12-31T11:47:42.326Z,10.43
2018-12-31T11:50:15.288Z,9.50
2018-12-31T11:52:45.635Z,9.40
2018-12-31T11:55:14.664Z,17.90
2018-12-31T11:57:44.700Z,9.40
2018-12-31T12:00:14.688Z,7.77
2018-12-31T12:02:43.847Z,7.10
2018-12-31T12:05:12.949Z,7.03
2018-12-31T12:07:42.320Z,7.40
2018-12-31T12:10:11.340Z,9.23
2018-12-31T12:12:40.461Z,8.17
2018-12-31T12:15:09.478Z,7.57
2018-12-31T12:17:38.614Z,7.93
2018-12-31T12:20:07.851Z,7.17
2018-12-31T12:22:36.899Z,10.40
2018-12-31T12:25:05.959Z,30.13
2018-12-31T12:27:35.105Z,8.03
2018-12-31T12:30:04.740Z,6.93
2018-12-31T12:32:34.722Z,7.30
2018-12-31T12:35:03.825Z,6.87
2018-12-31T12:37:32.911Z,6.63
2018-12-31T12:40:02.012Z,6.83
2018-12-31T12:42:31.077Z,7.47
2018-12-31T12:45:03.060Z,7.40
2018-12-31T12:47:32.283Z,6.47
2018-12-31T12:50:01.379Z,6.60
2018-12-31T12:52:30.471Z,7.13
2018-12-31T12:54:59.490Z,7.60
2018-12-31T12:57:30.397Z,7.20
2018-12-31T13:00:01.733Z,6.70
2018-12-31T13:02:32.784Z,7.17
2018-12-31T13:05:03.781Z,7.07
2018-12-31T13:07:32.718Z,6.50
2018-12-31T13:10:01.738Z,6.17
2018-12-31T13:12:30.840Z,6.93
2018-12-31T13:15:02.187Z,6.93
2018-12-31T13:17:37.201Z,7.67
2018-12-31T13:20:07.262Z,7.73
2018-12-31T13:22:36.348Z,7.57
2018-12-31T13:25:05.440Z,8.37
2018-12-31T13:27:34.457Z,7.27
2018-12-31T13:30:03.636Z,8.03
2018-12-31T13:32:32.724Z,6.50
2018-12-31T13:35:01.921Z,6.43
2018-12-31T13:37:31.061Z,5.77
2018-12-31T13:40:00.543Z,5.73
2018-12-31T13:42:31.288Z,6.33
2018-12-31T13:45:02.231Z,6.33
2018-12-31T13:47:31.317Z,6.00
2018-12-31T13:50:01.511Z,6.07
2018-12-31T13:52:30.708Z,5.57
2018-12-31T13:55:09.023Z,6.37
2018-12-31T13:57:38.846Z,5.50
2018-12-31T14:00:10.185Z,5.40
2018-12-31T14:02:39.223Z,9.40
2018-12-31T14:05:08.634Z,7.70
2018-12-31T14:07:37.837Z,7.07
2018-12-31T14:10:07.173Z,6.47
2018-12-31T14:12:36.338Z,6.50
2018-12-31T14:15:05.848Z,6.90
2018-12-31T14:17:35.329Z,6.90
2018-12-31T14:20:04.767Z,6.57
2018-12-31T14:22:33.879Z,6.50
2018-12-31T14:25:03.047Z,5.77
2018-12-31T14:27:34.176Z,6.10
2018-12-31T14:30:03.505Z,5.43
2018-12-31T14:32:33.059Z,6.60
2018-12-31T14:35:02.051Z,5.73
2018-12-31T14:37:31.321Z,5.97
2018-12-31T14:40:02.039Z,5.77
2018-12-31T14:42:32.405Z,6.10
2018-12-31T14:45:02.664Z,6.10
2018-12-31T14:47:31.747Z,6.80
2018-12-31T14:50:00.891Z,7.27
2018-12-31T14:52:32.021Z,7.07
2018-12-31T14:55:06.203Z,7.50
2018-12-31T14:57:35.309Z,7.20
2018-12-31T15:00:07.871Z,7.33
2018-12-31T15:02:57.210Z,7.67
2018-12-31T15:05:31.372Z,8.40
2018-12-31T15:08:00.450Z,7.57
2018-12-31T15:10:29.663Z,8.60
2018-12-31T15:13:03.055Z,9.30
2018-12-31T15:15:32.176Z,9.50
2018-12-31T15:18:01.433Z,9.63
2018-12-31T15:20:30.528Z,10.00
2018-12-31T15:23:03.626Z,8.90
2018-12-31T15:25:32.672Z,9.33
2018-12-31T15:28:01.725Z,9.83
2018-12-31T15:30:32.758Z,9.53
2018-12-31T15:33:03.190Z,10.77
2018-12-31T15:35:32.216Z,9.47
2018-12-31T15:38:01.351Z,9.40
2018-12-31T15:40:32.489Z,11.77
2018-12-31T15:43:01.660Z,12.97
2018-12-31T15:45:30.753Z,11.67
2018-12-31T15:48:02.184Z,11.07
2018-12-31T15:50:31.332Z,10.77
2018-12-31T15:53:00.448Z,12.43
2018-12-31T15:55:29.535Z,11.20
2018-12-31T15:58:00.839Z,11.07
2018-12-31T16:00:29.925Z,13.37
2018-12-31T16:02:58.975Z,18.33
2018-12-31T16:05:28.554Z,19.57
2018-12-31T16:07:57.671Z,14.20
2018-12-31T16:10:27.303Z,12.40
2018-12-31T16:12:57.403Z,11.90
2018-12-31T16:15:28.600Z,11.93
2018-12-31T16:17:57.792Z,10.87
2018-12-31T16:20:26.824Z,12.33
2018-12-31T16:22:56.291Z,14.40
2018-12-31T16:25:27.675Z,22.73
2018-12-31T16:27:56.730Z,30.97
2018-12-31T16:30:25.764Z,33.70
2018-12-31T16:32:54.791Z,28.97
2018-12-31T16:35:24.290Z,18.17
2018-12-31T16:37:53.335Z,13.07
2018-12-31T16:40:22.384Z,11.50
2018-12-31T16:42:51.579Z,12.23
2018-12-31T16:45:20.600Z,11.07
2018-12-31T16:47:49.815Z,10.50
2018-12-31T16:50:20.107Z,10.80
2018-12-31T16:52:51.613Z,12.03
2018-12-31T16:55:22.425Z,14.20
2018-12-31T16:57:52.999Z,16.13
2018-12-31T17:00:22.121Z,16.70
2018-12-31T17:02:51.228Z,18.33
2018-12-31T17:05:20.360Z,25.93
2018-12-31T17:07:54.714Z,50.57
2018-12-31T17:10:24.204Z,40.30
2018-12-31T17:12:54.787Z,23.93
2018-12-31T17:15:23.902Z,16.13
2018-12-31T17:17:52.952Z,14.70
2018-12-31T17:20:22.082Z,12.90
2018-12-31T17:22:51.690Z,14.60
2018-12-31T17:25:20.858Z,15.03
2018-12-31T17:27:50.229Z,18.73
2018-12-31T17:30:19.401Z,18.87
2018-12-31T17:32:48.501Z,17.70
2018-12-31T17:35:19.972Z,16.63
2018-12-31T17:37:49.666Z,15.10
2018-12-31T17:40:18.792Z,50.53
2018-12-31T17:42:49.700Z,34.77
2018-12-31T17:45:22.975Z,15.60
2018-12-31T17:47:49.656Z,15.87
2018-12-31T17:50:18.962Z,13.60
2018-12-31T17:52:47.950Z,14.67
2018-12-31T17:55:18.817Z,14.70
2018-12-31T17:57:48.056Z,15.77
2018-12-31T18:00:19.343Z,14.27
2018-12-31T18:02:48.417Z,15.17
2018-12-31T18:05:17.603Z,21.23
2018-12-31T18:07:46.684Z,19.10
2018-12-31T18:10:15.808Z,20.43
2018-12-31T18:12:44.972Z,16.37
2018-12-31T18:15:14.041Z,18.10
2018-12-31T18:17:43.090Z,19.23
2018-12-31T18:20:12.175Z,56.87
2018-12-31T18:22:41.230Z,32.03
2018-12-31T18:25:10.396Z,22.43
2018-12-31T18:27:39.535Z,16.10
2018-12-31T18:30:10.071Z,13.70
2018-12-31T18:32:39.238Z,17.30
2018-12-31T18:35:08.342Z,15.13
2018-12-31T18:37:41.697Z,15.53
2018-12-31T18:40:08.659Z,17.27
2018-12-31T18:42:38.248Z,18.53
2018-12-31T18:45:07.438Z,18.23
2018-12-31T18:47:36.856Z,20.30
2018-12-31T18:50:08.672Z,19.33
2018-12-31T18:52:37.923Z,20.23
2018-12-31T18:55:09.010Z,26.40
2018-12-31T18:57:38.178Z,22.37
2018-12-31T19:00:09.199Z,21.50
2018-12-31T19:02:38.289Z,23.40
2018-12-31T19:05:07.384Z,22.67
2018-12-31T19:07:36.557Z,21.83
2018-12-31T19:10:05.796Z,22.90
2018-12-31T19:12:35.479Z,22.57
2018-12-31T19:15:04.567Z,28.17
2018-12-31T19:17:33.695Z,24.77
2018-12-31T19:20:05.740Z,23.13
2018-12-31T19:22:34.820Z,21.30
2018-12-31T19:25:03.880Z,22.57
2018-12-31T19:27:32.949Z,23.70
2018-12-31T19:30:04.009Z,23.07
2018-12-31T19:32:33.119Z,22.10
2018-12-31T19:35:02.153Z,24.27
2018-12-31T19:37:34.315Z,22.47
2018-12-31T19:40:04.759Z,22.70
2018-12-31T19:42:35.687Z,22.23
2018-12-31T19:45:05.513Z,21.53
2018-12-31T19:47:34.723Z,20.77
2018-12-31T19:50:05.397Z,20.53
2018-12-31T19:52:34.525Z,21.13
2018-12-31T19:55:03.655Z,24.07
2018-12-31T19:57:32.902Z,21.67
2018-12-31T20:00:01.875Z,22.23
2018-12-31T20:02:30.986Z,21.80
2018-12-31T20:05:03.834Z,22.37
2018-12-31T20:07:32.929Z,23.33
2018-12-31T20:10:02.058Z,21.33
2018-12-31T20:12:31.540Z,24.90
2018-12-31T20:15:00.695Z,21.77
2018-12-31T20:17:29.823Z,21.33
2018-12-31T20:20:00.922Z,22.13
2018-12-31T20:22:35.256Z,20.20
2018-12-31T20:25:04.373Z,20.73
2018-12-31T20:27:33.856Z,20.50
2018-12-31T20:30:04.340Z,20.57
2018-12-31T20:32:33.375Z,19.80
2018-12-31T20:35:03.763Z,20.47
2018-12-31T20:37:33.650Z,20.27
2018-12-31T20:40:02.797Z,19.70
2018-12-31T20:42:42.857Z,21.87
2018-12-31T20:45:14.304Z,20.63
2018-12-31T20:47:46.941Z,20.27
2018-12-31T20:50:20.108Z,21.13
2018-12-31T20:52:50.000Z,23.40
2018-12-31T20:55:19.115Z,23.13
2018-12-31T20:57:48.215Z,20.93
2018-12-31T21:00:20.959Z,59.20
2018-12-31T21:02:50.017Z,25.83
2018-12-31T21:05:19.186Z,22.40
2018-12-31T21:07:48.322Z,21.93
2018-12-31T21:10:17.431Z,23.07
2018-12-31T21:12:46.762Z,22.27
2018-12-31T21:15:16.374Z,22.67
2018-12-31T21:17:47.762Z,24.37
2018-12-31T21:20:23.276Z,23.13
2018-12-31T21:22:52.267Z,32.57
2018-12-31T21:25:21.333Z,29.63
2018-12-31T21:27:50.412Z,24.77
2018-12-31T21:30:20.608Z,24.27
2018-12-31T21:32:49.912Z,24.43
2018-12-31T21:35:19.441Z,25.23
2018-12-31T21:37:48.488Z,25.03
2018-12-31T21:40:17.676Z,31.27
2018-12-31T21:42:46.882Z,24.83
2018-12-31T21:45:16.021Z,24.83
2018-12-31T21:47:45.202Z,24.10
2018-12-31T21:50:15.774Z,25.23
2018-12-31T21:52:44.799Z,25.60
2018-12-31T21:55:14.270Z,73.37
2018-12-31T21:57:46.340Z,26.53
2018-12-31T22:00:16.847Z,49.80
2018-12-31T22:02:48.138Z,35.23
2018-12-31T22:05:17.245Z,33.40
2018-12-31T22:07:46.891Z,26.80
2018-12-31T22:10:17.220Z,24.53
2018-12-31T22:12:46.328Z,25.13
2018-12-31T22:15:15.712Z,25.40
2018-12-31T22:17:45.857Z,25.10
2018-12-31T22:20:15.111Z,24.10
2018-12-31T22:22:44.620Z,26.30
2018-12-31T22:25:15.239Z,26.77
2018-12-31T22:27:44.404Z,27.20
2018-12-31T22:30:18.485Z,26.00
2018-12-31T22:32:47.625Z,26.40
2018-12-31T22:35:16.797Z,25.73
2018-12-31T22:37:56.929Z,32.63
2018-12-31T22:40:26.779Z,30.47
2018-12-31T22:43:09.433Z,29.80
2018-12-31T22:45:42.176Z,31.27
2018-12-31T22:48:11.235Z,30.87
2018-12-31T22:50:41.849Z,35.20
2018-12-31T22:53:11.031Z,26.37
2018-12-31T22:55:40.123Z,26.77
2018-12-31T22:58:12.230Z,26.60
2018-12-31T23:00:43.329Z,29.23
2018-12-31T23:03:12.425Z,29.00
2018-12-31T23:05:41.771Z,273.10
2018-12-31T23:08:11.895Z,338.97
2018-12-31T23:10:42.704Z,295.67
2018-12-31T23:13:11.831Z,182.47
2018-12-31T23:15:44.026Z,129.60
2018-12-31T23:18:22.569Z,70.07
2018-12-31T23:20:55.503Z,197.43
2018-12-31T23:24:02.407Z,107.17
2018-12-31T23:26:02.809Z,60.47
2018-12-31T23:28:33.287Z,49.57
2018-12-31T23:31:04.210Z,61.17
2018-12-31T23:33:33.473Z,70.47
2018-12-31T23:36:04.838Z,72.47
2018-12-31T23:38:33.947Z,94.17
2018-12-31T23:41:08.497Z,105.57
2018-12-31T23:43:38.023Z,110.23
2018-12-31T23:46:19.255Z,107.97
2018-12-31T23:48:49.831Z,110.53
2018-12-31T23:51:20.607Z,99.17
2018-12-31T23:53:51.239Z,96.00
2018-12-31T23:56:24.320Z,100.60
2018-12-31T23:58:54.243Z,100.13
